Oshawa Airport

CYOO · 安大略, 加拿大

TAF CYOO · Oshawa Airport

24 六月 15:40 LT
7h
2024年6月24日 16:002024年6月25日 04:00有效
时间
星期一
16:00
星期一
17:00
星期一
18:00
星期一
19:00
星期一
20:00
星期一
21:00
星期一
22:00
星期一
23:00
星期二
00:00
星期二
01:00
星期二
02:00
星期二
03:00
代码
VFR
VFR
VFR
VFR
VFR
VFR
VFR
VFR
VFR
VFR
VFR
VFR
天气
几云
几云
几云
几云
几云
几云
几云
几云
几云
几云
几云
几云
能见度
6 mi+
6 mi+
6 mi+
6 mi+
6 mi+
6 mi+
6 mi+
6 mi+
6 mi+
6 mi+
6 mi+
6 mi+
天花板
-
-
-
-
-
-
-
-
-
-
-
-
330°
330°
330°
330°
300°
300°
300°
300°
300°
300°
300°
300°
300°
300°
Var
Var
Var
Var
Var
Var
Var
Var
Var
Var
速度
12 kt
12 kt
12 kt
12 kt
8 kt
8 kt
8 kt
8 kt
8 kt
3 kt
3 kt
3 kt
阵风
22 kt
22 kt
22 kt
22 kt
温度/星期日
21:02

原版的

TAF CYOO 241940Z 2420/2508 33012G22KT P6SM FEW070
BECMG 2422/2424 30008KT
BECMG 2503/2505 VRB03KT RMK FCST BASED ON AUTO OBS. NXT FCST BY 250200Z

TAF Oshawa Airport

Oshawa Airport是,加拿大中的中型机场。 该机场位于纬度43,92255和经度-78,89538。 该机场有2条跑道: 5/23 和 12/30. 本场的ICAO机场代码为CYOO。 该机场的本地机场标识(FAA LID)为CYOO。 该机场的IATA代码为YOO。 机场在Toronto FIR中。

该航空气象观测是针对Oshawa Airport在2024年6月24日 15:40, 当地时间进行的。 从2024年6月24日 16:00到2024年6月25日 04:00, 当地时间有效.

预报

  • 在星期一 16:00和星期二 04:00之间

    • 风: 风来自330°方向,速度为12 kt。 预计22 kt阵风。
    • 能见度: 6 mi 或者更多
    • 乌云: 几云在7.000 ft的高度.
  • 介于星期一 18:00和20:00之间

    • 风: 风来自300°方向,速度为8 kt。
  • 介于星期一 23:00和星期二 01:00之间

    • 风: 可变方向的风很小或没有。

白天

今天,太阳从05:34升起,在21:02降落。 这适用于Oshawa Airport,世界夏令时可能有所不同。 当地时间与世界标准时间之间的时差为-4 小时。 夏令时目前正在进行中。

报告变更